sensor_id;sensor_type;location;lat;lon;timestamp;pressure;altitude;pressure_sealevel;temperature;humidity
52719;BME280;38616;42.140;24.760;2024-03-02T00:00:02;99252.84;;;10.56;nan
52719;BME280;38616;42.140;24.760;2024-03-02T00:02:40;99243.09;;;10.55;nan
52719;BME280;38616;42.140;24.760;2024-03-02T00:05:06;99244.22;;;10.48;nan
52719;BME280;38616;42.140;24.760;2024-03-02T00:07:34;99238.34;;;10.41;nan
52719;BME280;38616;42.140;24.760;2024-03-02T00:10:00;99230.88;;;10.52;nan
52719;BME280;38616;42.140;24.760;2024-03-02T00:12:26;99243.78;;;10.36;nan
52719;BME280;38616;42.140;24.760;2024-03-02T00:14:51;99244.63;;;10.31;nan
52719;BME280;38616;42.140;24.760;2024-03-02T00:17:24;99241.63;;;10.33;nan
52719;BME280;38616;42.140;24.760;2024-03-02T00:19:53;99243.00;;;10.30;nan
52719;BME280;38616;42.140;24.760;2024-03-02T00:22:18;99235.63;;;10.41;nan
52719;BME280;38616;42.140;24.760;2024-03-02T00:24:44;99234.06;;;10.30;nan
52719;BME280;38616;42.140;24.760;2024-03-02T00:27:12;99226.06;;;9.85;nan
52719;BME280;38616;42.140;24.760;2024-03-02T00:29:40;99231.16;;;9.91;nan
52719;BME280;38616;42.140;24.760;2024-03-02T00:32:13;99228.94;;;9.99;nan
52719;BME280;38616;42.140;24.760;2024-03-02T00:34:40;99226.56;;;9.92;nan
52719;BME280;38616;42.140;24.760;2024-03-02T00:37:06;99223.81;;;9.97;nan
52719;BME280;38616;42.140;24.760;2024-03-02T00:39:31;99234.56;;;10.08;nan
52719;BME280;38616;42.140;24.760;2024-03-02T00:41:57;99226.06;;;10.14;nan
52719;BME280;38616;42.140;24.760;2024-03-02T00:44:25;99217.34;;;10.17;nan
52719;BME280;38616;42.140;24.760;2024-03-02T00:46:52;99216.31;;;10.43;nan
52719;BME280;38616;42.140;24.760;2024-03-02T00:49:23;99218.25;;;10.37;nan
52719;BME280;38616;42.140;24.760;2024-03-02T00:51:53;99215.59;;;10.32;nan
52719;BME280;38616;42.140;24.760;2024-03-02T00:54:25;99213.09;;;10.35;nan
52719;BME280;38616;42.140;24.760;2024-03-02T00:56:51;99205.53;;;10.32;nan
52719;BME280;38616;42.140;24.760;2024-03-02T00:59:17;99210.69;;;10.34;nan
52719;BME280;38616;42.140;24.760;2024-03-02T01:01:43;99204.00;;;10.21;nan
52719;BME280;38616;42.140;24.760;2024-03-02T01:04:09;99205.69;;;10.17;nan
52719;BME280;38616;42.140;24.760;2024-03-02T01:06:35;99200.47;;;9.96;nan
52719;BME280;38616;42.140;24.760;2024-03-02T01:09:01;99191.72;;;10.04;nan
52719;BME280;38616;42.140;24.760;2024-03-02T01:11:26;99191.66;;;10.10;nan
52719;BME280;38616;42.140;24.760;2024-03-02T01:13:52;99189.53;;;10.07;nan
52719;BME280;38616;42.140;24.760;2024-03-02T01:16:18;99185.94;;;10.11;nan
52719;BME280;38616;42.140;24.760;2024-03-02T01:18:44;99188.81;;;10.20;nan
52719;BME280;38616;42.140;24.760;2024-03-02T01:21:09;99195.66;;;10.17;nan
52719;BME280;38616;42.140;24.760;2024-03-02T01:23:35;99193.09;;;10.26;nan
52719;BME280;38616;42.140;24.760;2024-03-02T01:26:00;99183.16;;;10.16;nan
52719;BME280;38616;42.140;24.760;2024-03-02T01:28:26;99182.44;;;10.11;nan
52719;BME280;38616;42.140;24.760;2024-03-02T01:30:51;99182.44;;;10.11;nan
52719;BME280;38616;42.140;24.760;2024-03-02T01:33:17;99179.25;;;10.28;nan
52719;BME280;38616;42.140;24.760;2024-03-02T01:35:43;99177.53;;;10.13;nan
52719;BME280;38616;42.140;24.760;2024-03-02T01:38:09;99177.28;;;10.09;nan
52719;BME280;38616;42.140;24.760;2024-03-02T01:40:35;99181.94;;;10.03;nan
52719;BME280;38616;42.140;24.760;2024-03-02T01:43:01;99182.78;;;9.99;nan
52719;BME280;38616;42.140;24.760;2024-03-02T01:45:28;99179.56;;;9.97;nan
52719;BME280;38616;42.140;24.760;2024-03-02T01:47:54;99182.13;;;10.12;nan
52719;BME280;38616;42.140;24.760;2024-03-02T01:50:32;99166.53;;;10.23;nan
52719;BME280;38616;42.140;24.760;2024-03-02T01:52:59;99177.16;;;10.19;nan
52719;BME280;38616;42.140;24.760;2024-03-02T01:55:25;99188.06;;;10.14;nan
52719;BME280;38616;42.140;24.760;2024-03-02T01:57:52;99181.19;;;9.98;nan
52719;BME280;38616;42.140;24.760;2024-03-02T02:00:19;99185.41;;;10.09;nan
52719;BME280;38616;42.140;24.760;2024-03-02T02:02:47;99179.72;;;10.11;nan
52719;BME280;38616;42.140;24.760;2024-03-02T02:05:13;99188.22;;;9.99;nan
52719;BME280;38616;42.140;24.760;2024-03-02T02:07:40;99169.75;;;10.01;nan
52719;BME280;38616;42.140;24.760;2024-03-02T02:10:07;99174.09;;;10.02;nan
52719;BME280;38616;42.140;24.760;2024-03-02T02:12:33;99168.47;;;9.93;nan
52719;BME280;38616;42.140;24.760;2024-03-02T02:14:58;99171.38;;;10.02;nan
52719;BME280;38616;42.140;24.760;2024-03-02T02:17:24;99171.47;;;9.91;nan
52719;BME280;38616;42.140;24.760;2024-03-02T02:19:52;99164.81;;;9.79;nan
52719;BME280;38616;42.140;24.760;2024-03-02T02:22:18;99175.41;;;9.75;nan
52719;BME280;38616;42.140;24.760;2024-03-02T02:24:46;99167.28;;;9.75;nan
52719;BME280;38616;42.140;24.760;2024-03-02T02:27:12;99167.72;;;9.87;nan
52719;BME280;38616;42.140;24.760;2024-03-02T02:29:40;99169.81;;;9.96;nan
52719;BME280;38616;42.140;24.760;2024-03-02T02:32:05;99161.75;;;9.85;nan
52719;BME280;38616;42.140;24.760;2024-03-02T02:34:31;99163.94;;;9.83;nan
52719;BME280;38616;42.140;24.760;2024-03-02T02:36:56;99165.56;;;9.84;nan
52719;BME280;38616;42.140;24.760;2024-03-02T02:39:22;99158.53;;;9.83;nan
52719;BME280;38616;42.140;24.760;2024-03-02T02:41:48;99167.91;;;9.96;nan
52719;BME280;38616;42.140;24.760;2024-03-02T02:44:14;99160.25;;;10.03;nan
52719;BME280;38616;42.140;24.760;2024-03-02T02:46:40;99162.38;;;10.07;nan
52719;BME280;38616;42.140;24.760;2024-03-02T02:49:06;99152.91;;;10.04;nan
52719;BME280;38616;42.140;24.760;2024-03-02T02:51:32;99162.13;;;10.03;nan
52719;BME280;38616;42.140;24.760;2024-03-02T02:53:57;99154.56;;;9.70;nan
52719;BME280;38616;42.140;24.760;2024-03-02T02:56:23;99166.53;;;9.69;nan
52719;BME280;38616;42.140;24.760;2024-03-02T02:58:48;99166.13;;;9.81;nan
52719;BME280;38616;42.140;24.760;2024-03-02T03:01:15;99167.34;;;9.70;nan
52719;BME280;38616;42.140;24.760;2024-03-02T03:03:43;99168.72;;;9.67;nan
52719;BME280;38616;42.140;24.760;2024-03-02T03:06:09;99163.53;;;9.71;nan
52719;BME280;38616;42.140;24.760;2024-03-02T03:08:35;99167.19;;;9.85;nan
52719;BME280;38616;42.140;24.760;2024-03-02T03:11:00;99158.91;;;10.01;nan
52719;BME280;38616;42.140;24.760;2024-03-02T03:13:25;99165.84;;;10.12;nan
52719;BME280;38616;42.140;24.760;2024-03-02T03:15:52;99160.75;;;10.05;nan
52719;BME280;38616;42.140;24.760;2024-03-02T03:18:18;99159.31;;;10.13;nan
52719;BME280;38616;42.140;24.760;2024-03-02T03:20:44;99162.97;;;10.03;nan
52719;BME280;38616;42.140;24.760;2024-03-02T03:23:09;99172.25;;;9.97;nan
52719;BME280;38616;42.140;24.760;2024-03-02T03:25:35;99163.91;;;9.59;nan
52719;BME280;38616;42.140;24.760;2024-03-02T03:28:00;99156.69;;;9.79;nan
52719;BME280;38616;42.140;24.760;2024-03-02T03:30:27;99152.00;;;9.84;nan
52719;BME280;38616;42.140;24.760;2024-03-02T03:32:52;99149.06;;;9.81;nan
52719;BME280;38616;42.140;24.760;2024-03-02T03:35:18;99145.69;;;9.65;nan
52719;BME280;38616;42.140;24.760;2024-03-02T03:37:43;99155.19;;;9.91;nan
52719;BME280;38616;42.140;24.760;2024-03-02T03:40:10;99147.63;;;9.88;nan
52719;BME280;38616;42.140;24.760;2024-03-02T03:42:38;99153.00;;;9.94;nan
52719;BME280;38616;42.140;24.760;2024-03-02T03:45:05;99157.63;;;9.93;nan
52719;BME280;38616;42.140;24.760;2024-03-02T03:47:34;99146.66;;;9.74;nan
52719;BME280;38616;42.140;24.760;2024-03-02T03:49:59;99144.44;;;9.81;nan
52719;BME280;38616;42.140;24.760;2024-03-02T03:52:25;99155.19;;;9.91;nan
52719;BME280;38616;42.140;24.760;2024-03-02T03:54:51;99146.53;;;9.89;nan
52719;BME280;38616;42.140;24.760;2024-03-02T03:57:17;99152.41;;;9.97;nan
52719;BME280;38616;42.140;24.760;2024-03-02T03:59:43;99153.97;;;9.79;nan
52719;BME280;38616;42.140;24.760;2024-03-02T04:02:09;99150.22;;;9.99;nan
52719;BME280;38616;42.140;24.760;2024-03-02T04:04:35;99151.63;;;9.96;nan
52719;BME280;38616;42.140;24.760;2024-03-02T04:07:01;99157.28;;;10.00;nan
52719;BME280;38616;42.140;24.760;2024-03-02T04:09:26;99165.72;;;9.98;nan
52719;BME280;38616;42.140;24.760;2024-03-02T04:11:52;99170.69;;;10.15;nan
52719;BME280;38616;42.140;24.760;2024-03-02T04:14:18;99169.19;;;10.04;nan
52719;BME280;38616;42.140;24.760;2024-03-02T04:16:43;99169.06;;;10.14;nan
52719;BME280;38616;42.140;24.760;2024-03-02T04:19:09;99160.34;;;10.17;nan
52719;BME280;38616;42.140;24.760;2024-03-02T04:21:36;99168.84;;;10.11;nan
52719;BME280;38616;42.140;24.760;2024-03-02T04:24:02;99164.22;;;10.11;nan
52719;BME280;38616;42.140;24.760;2024-03-02T04:26:28;99172.38;;;10.11;nan
52719;BME280;38616;42.140;24.760;2024-03-02T04:28:54;99152.28;;;10.12;nan
52719;BME280;38616;42.140;24.760;2024-03-02T04:31:20;99168.97;;;10.25;nan
52719;BME280;38616;42.140;24.760;2024-03-02T04:33:45;99173.34;;;10.20;nan
52719;BME280;38616;42.140;24.760;2024-03-02T04:36:11;99164.22;;;10.11;nan
52719;BME280;38616;42.140;24.760;2024-03-02T04:38:38;99171.78;;;10.14;nan
52719;BME280;38616;42.140;24.760;2024-03-02T04:41:06;99160.47;;;10.07;nan
52719;BME280;38616;42.140;24.760;2024-03-02T04:43:33;99159.78;;;10.20;nan
52719;BME280;38616;42.140;24.760;2024-03-02T04:46:00;99158.69;;;10.22;nan
52719;BME280;38616;42.140;24.760;2024-03-02T04:48:25;99155.41;;;10.25;nan
52719;BME280;38616;42.140;24.760;2024-03-02T04:50:51;99152.16;;;10.23;nan
52719;BME280;38616;42.140;24.760;2024-03-02T04:53:17;99155.09;;;10.26;nan
52719;BME280;38616;42.140;24.760;2024-03-02T04:55:42;99153.47;;;10.25;nan
52719;BME280;38616;42.140;24.760;2024-03-02T04:58:08;99171.50;;;10.16;nan
52719;BME280;38616;42.140;24.760;2024-03-02T05:00:34;99165.84;;;10.12;nan
52719;BME280;38616;42.140;24.760;2024-03-02T05:02:59;99165.63;;;10.09;nan
52719;BME280;38616;42.140;24.760;2024-03-02T05:05:25;99169.81;;;10.20;nan
52719;BME280;38616;42.140;24.760;2024-03-02T05:07:51;99167.56;;;10.27;nan
52719;BME280;38616;42.140;24.760;2024-03-02T05:10:17;99173.41;;;10.15;nan
52719;BME280;38616;42.140;24.760;2024-03-02T05:12:42;99176.66;;;10.17;nan
52719;BME280;38616;42.140;24.760;2024-03-02T05:15:12;99176.78;;;10.02;nan
52719;BME280;38616;42.140;24.760;2024-03-02T05:17:40;99180.28;;;10.32;nan
52719;BME280;38616;42.140;24.760;2024-03-02T05:20:07;99179.81;;;10.25;nan
52719;BME280;38616;42.140;24.760;2024-03-02T05:22:35;99173.75;;;10.33;nan
52719;BME280;38616;42.140;24.760;2024-03-02T05:25:05;99179.50;;;10.02;nan
52719;BME280;38616;42.140;24.760;2024-03-02T05:27:31;99177.88;;;10.01;nan
52719;BME280;38616;42.140;24.760;2024-03-02T05:29:58;99182.78;;;9.99;nan
52719;BME280;38616;42.140;24.760;2024-03-02T05:32:24;99174.66;;;9.99;nan
52719;BME280;38616;42.140;24.760;2024-03-02T05:34:49;99188.94;;;10.10;nan
52719;BME280;38616;42.140;24.760;2024-03-02T05:37:16;99187.88;;;9.76;nan
52719;BME280;38616;42.140;24.760;2024-03-02T05:39:41;99188.94;;;9.80;nan
52719;BME280;38616;42.140;24.760;2024-03-02T05:42:08;99194.25;;;9.90;nan
52719;BME280;38616;42.140;24.760;2024-03-02T05:44:35;99190.94;;;9.99;nan
52719;BME280;38616;42.140;24.760;2024-03-02T05:47:00;99194.69;;;10.03;nan
52719;BME280;38616;42.140;24.760;2024-03-02T05:51:51;99198.75;;;10.05;nan
52719;BME280;38616;42.140;24.760;2024-03-02T05:54:16;99196.22;;;10.14;nan
52719;BME280;38616;42.140;24.760;2024-03-02T05:56:42;99200.72;;;10.24;nan
52719;BME280;38616;42.140;24.760;2024-03-02T05:59:07;99195.66;;;10.17;nan
52719;BME280;38616;42.140;24.760;2024-03-02T06:01:43;99190.78;;;10.14;nan
52719;BME280;38616;42.140;24.760;2024-03-02T06:04:13;99190.88;;;10.04;nan
52719;BME280;38616;42.140;24.760;2024-03-02T06:06:39;99185.25;;;10.00;nan
52719;BME280;38616;42.140;24.760;2024-03-02T06:09:05;99195.66;;;10.17;nan
52719;BME280;38616;42.140;24.760;2024-03-02T06:11:38;99189.53;;;10.07;nan
52719;BME280;38616;42.140;24.760;2024-03-02T06:14:04;99187.28;;;10.14;nan
52719;BME280;38616;42.140;24.760;2024-03-02T06:16:30;99186.69;;;10.17;nan
52719;BME280;38616;42.140;24.760;2024-03-02T06:18:56;99191.38;;;10.35;nan
52719;BME280;38616;42.140;24.760;2024-03-02T06:21:26;99198.69;;;10.40;nan
52719;BME280;38616;42.140;24.760;2024-03-02T06:23:52;99205.56;;;10.27;nan
52719;BME280;38616;42.140;24.760;2024-03-02T06:26:18;99199.56;;;10.06;nan
52719;BME280;38616;42.140;24.760;2024-03-02T06:28:44;99204.81;;;9.97;nan
52719;BME280;38616;42.140;24.760;2024-03-02T06:31:09;99210.84;;;10.18;nan
52719;BME280;38616;42.140;24.760;2024-03-02T06:33:35;99208.84;;;10.00;nan
52719;BME280;38616;42.140;24.760;2024-03-02T06:36:01;99214.22;;;10.05;nan
52719;BME280;38616;42.140;24.760;2024-03-02T06:38:27;99210.44;;;10.30;nan
52719;BME280;38616;42.140;24.760;2024-03-02T06:40:52;99210.34;;;10.11;nan
52719;BME280;38616;42.140;24.760;2024-03-02T06:43:18;99212.28;;;10.35;nan
52719;BME280;38616;42.140;24.760;2024-03-02T06:45:49;99207.59;;;10.46;nan
52719;BME280;38616;42.140;24.760;2024-03-02T06:48:14;99209.91;;;10.58;nan
52719;BME280;38616;42.140;24.760;2024-03-02T06:50:43;99211.38;;;10.69;nan
52719;BME280;38616;42.140;24.760;2024-03-02T06:53:09;99220.28;;;10.75;nan
52719;BME280;38616;42.140;24.760;2024-03-02T06:55:34;99222.56;;;10.87;nan
52719;BME280;38616;42.140;24.760;2024-03-02T06:58:00;99233.25;;;11.02;nan
52719;BME280;38616;42.140;24.760;2024-03-02T07:00:25;99233.44;;;10.87;nan
52719;BME280;38616;42.140;24.760;2024-03-02T07:02:51;99229.81;;;10.97;nan
52719;BME280;38616;42.140;24.760;2024-03-02T07:05:16;99232.13;;;10.84;nan
52719;BME280;38616;42.140;24.760;2024-03-02T07:07:42;99230.47;;;10.34;nan
52719;BME280;38616;42.140;24.760;2024-03-02T07:10:07;99232.91;;;9.37;nan
52719;BME280;38616;42.140;24.760;2024-03-02T07:12:33;99228.13;;;8.74;nan
52719;BME280;38616;42.140;24.760;2024-03-02T07:14:59;99217.16;;;8.23;nan
52719;BME280;38616;42.140;24.760;2024-03-02T07:17:31;99210.31;;;8.57;nan
52719;BME280;38616;42.140;24.760;2024-03-02T07:19:57;99215.44;;;8.48;nan
52719;BME280;38616;42.140;24.760;2024-03-02T07:22:23;99224.19;;;8.24;nan
52719;BME280;38616;42.140;24.760;2024-03-02T07:24:49;99229.63;;;9.00;nan
52719;BME280;38616;42.140;24.760;2024-03-02T07:27:15;99224.50;;;9.44;nan
52719;BME280;38616;42.140;24.760;2024-03-02T07:29:41;99229.47;;;9.66;nan
52719;BME280;38616;42.140;24.760;2024-03-02T07:32:08;99227.75;;;10.10;nan
52719;BME280;38616;42.140;24.760;2024-03-02T07:34:34;99227.91;;;10.19;nan
52719;BME280;38616;42.140;24.760;2024-03-02T07:36:59;99230.78;;;10.33;nan
52719;BME280;38616;42.140;24.760;2024-03-02T07:39:25;99234.53;;;10.42;nan
52719;BME280;38616;42.140;24.760;2024-03-02T07:41:51;99235.19;;;10.53;nan
52719;BME280;38616;42.140;24.760;2024-03-02T07:44:18;99235.19;;;10.53;nan
52719;BME280;38616;42.140;24.760;2024-03-02T07:46:48;99232.06;;;10.65;nan
52719;BME280;38616;42.140;24.760;2024-03-02T07:49:15;99230.59;;;10.54;nan
52719;BME280;38616;42.140;24.760;2024-03-02T07:51:41;99223.16;;;10.35;nan
52719;BME280;38616;42.140;24.760;2024-03-02T07:54:07;99227.31;;;9.23;nan
52719;BME280;38616;42.140;24.760;2024-03-02T07:56:32;99233.78;;;8.82;nan
52719;BME280;38616;42.140;24.760;2024-03-02T07:58:58;99232.22;;;8.61;nan
52719;BME280;38616;42.140;24.760;2024-03-02T08:01:29;99239.94;;;8.93;nan
52719;BME280;38616;42.140;24.760;2024-03-02T08:03:56;99225.88;;;9.36;nan
52719;BME280;38616;42.140;24.760;2024-03-02T08:06:27;99253.16;;;9.90;nan
52719;BME280;38616;42.140;24.760;2024-03-02T08:08:54;99247.59;;;10.05;nan
52719;BME280;38616;42.140;24.760;2024-03-02T08:11:20;99248.69;;;10.34;nan
52719;BME280;38616;42.140;24.760;2024-03-02T08:13:48;99243.00;;;10.30;nan
52719;BME280;38616;42.140;24.760;2024-03-02T08:16:15;99246.28;;;10.27;nan
52719;BME280;38616;42.140;24.760;2024-03-02T08:18:41;99242.69;;;10.37;nan
52719;BME280;38616;42.140;24.760;2024-03-02T08:21:07;99244.06;;;10.34;nan
52719;BME280;38616;42.140;24.760;2024-03-02T08:23:34;99236.88;;;10.49;nan
52719;BME280;38616;42.140;24.760;2024-03-02T08:26:00;99232.31;;;10.44;nan
52719;BME280;38616;42.140;24.760;2024-03-02T08:28:25;99221.25;;;10.35;nan
52719;BME280;38616;42.140;24.760;2024-03-02T08:30:51;99226.41;;;10.37;nan
52719;BME280;38616;42.140;24.760;2024-03-02T08:33:16;99234.09;;;10.54;nan
52719;BME280;38616;42.140;24.760;2024-03-02T08:35:42;99232.03;;;10.46;nan
52719;BME280;38616;42.140;24.760;2024-03-02T08:38:07;99233.44;;;10.38;nan
52719;BME280;38616;42.140;24.760;2024-03-02T08:40:33;99247.75;;;10.19;nan
52719;BME280;38616;42.140;24.760;2024-03-02T08:42:58;99235.63;;;10.12;nan
52719;BME280;38616;42.140;24.760;2024-03-02T08:45:24;99235.63;;;10.36;nan
52719;BME280;38616;42.140;24.760;2024-03-02T08:47:49;99233.94;;;10.45;nan
52719;BME280;38616;42.140;24.760;2024-03-02T08:50:15;99233.00;;;10.55;nan
52719;BME280;38616;42.140;24.760;2024-03-02T08:52:40;99237.22;;;10.42;nan
52719;BME280;38616;42.140;24.760;2024-03-02T08:55:06;99223.38;;;10.39;nan
52719;BME280;38616;42.140;24.760;2024-03-02T08:57:33;99221.69;;;10.48;nan
52719;BME280;38616;42.140;24.760;2024-03-02T08:59:59;99226.97;;;10.34;nan
52719;BME280;38616;42.140;24.760;2024-03-02T09:02:25;99225.50;;;9.88;nan
52719;BME280;38616;42.140;24.760;2024-03-02T09:04:50;99229.09;;;8.93;nan
52719;BME280;38616;42.140;24.760;2024-03-02T09:07:16;99237.03;;;8.79;nan
52719;BME280;38616;42.140;24.760;2024-03-02T09:09:41;99236.00;;;8.65;nan
52719;BME280;38616;42.140;24.760;2024-03-02T09:12:07;99228.19;;;9.19;nan
52719;BME280;38616;42.140;24.760;2024-03-02T09:14:33;99231.81;;;9.78;nan
52719;BME280;38616;42.140;24.760;2024-03-02T09:17:00;99232.63;;;10.38;nan
52719;BME280;38616;42.140;24.760;2024-03-02T09:19:25;99234.06;;;10.59;nan
52719;BME280;38616;42.140;24.760;2024-03-02T09:21:51;99234.28;;;10.63;nan
52719;BME280;38616;42.140;24.760;2024-03-02T09:24:16;99241.56;;;10.68;nan
52719;BME280;38616;42.140;24.760;2024-03-02T09:26:42;99244.44;;;10.76;nan
52719;BME280;38616;42.140;24.760;2024-03-02T09:29:07;99242.72;;;10.61;nan
52719;BME280;38616;42.140;24.760;2024-03-02T09:31:42;99239.59;;;10.73;nan
52719;BME280;38616;42.140;24.760;2024-03-02T09:34:07;99239.47;;;10.84;nan
52719;BME280;38616;42.140;24.760;2024-03-02T09:36:33;99240.97;;;10.95;nan
52719;BME280;38616;42.140;24.760;2024-03-02T09:38:59;99239.06;;;11.15;nan
52719;BME280;38616;42.140;24.760;2024-03-02T09:41:24;99241.78;;;11.15;nan
52719;BME280;38616;42.140;24.760;2024-03-02T09:43:51;99243.09;;;10.98;nan
52719;BME280;38616;42.140;24.760;2024-03-02T09:46:17;99243.16;;;10.93;nan
52719;BME280;38616;42.140;24.760;2024-03-02T09:48:46;99242.81;;;11.00;nan
52719;BME280;38616;42.140;24.760;2024-03-02T09:51:11;99248.16;;;11.05;nan
52719;BME280;38616;42.140;24.760;2024-03-02T09:53:37;99245.25;;;11.20;nan
52719;BME280;38616;42.140;24.760;2024-03-02T09:56:03;99247.97;;;11.40;nan
52719;BME280;38616;42.140;24.760;2024-03-02T09:58:30;99240.41;;;11.36;nan
52719;BME280;38616;42.140;24.760;2024-03-02T10:00:56;99247.75;;;11.36;nan
52719;BME280;38616;42.140;24.760;2024-03-02T10:03:22;99245.47;;;11.43;nan
52719;BME280;38616;42.140;24.760;2024-03-02T10:05:48;99239.50;;;11.60;nan
52719;BME280;38616;42.140;24.760;2024-03-02T10:08:14;99243.38;;;11.73;nan
52719;BME280;38616;42.140;24.760;2024-03-02T10:10:40;99233.03;;;11.75;nan
52719;BME280;38616;42.140;24.760;2024-03-02T10:13:11;99237.13;;;11.73;nan
52719;BME280;38616;42.140;24.760;2024-03-02T10:15:38;99237.56;;;11.80;nan
52719;BME280;38616;42.140;24.760;2024-03-02T10:18:09;99234.03;;;11.79;nan
52719;BME280;38616;42.140;24.760;2024-03-02T10:20:36;99234.56;;;11.81;nan
52719;BME280;38616;42.140;24.760;2024-03-02T10:23:12;99228.72;;;11.88;nan
52719;BME280;38616;42.140;24.760;2024-03-02T10:25:38;99241.59;;;12.02;nan
52719;BME280;38616;42.140;24.760;2024-03-02T10:28:04;99234.28;;;11.97;nan
52719;BME280;38616;42.140;24.760;2024-03-02T10:30:33;99219.50;;;12.03;nan
52719;BME280;38616;42.140;24.760;2024-03-02T10:33:00;99218.44;;;11.85;nan
52719;BME280;38616;42.140;24.760;2024-03-02T10:35:26;99221.06;;;11.90;nan
52719;BME280;38616;42.140;24.760;2024-03-02T10:37:52;99212.13;;;11.71;nan
52719;BME280;38616;42.140;24.760;2024-03-02T10:40:20;99214.06;;;11.51;nan
52719;BME280;38616;42.140;24.760;2024-03-02T10:42:46;99204.03;;;11.65;nan
52719;BME280;38616;42.140;24.760;2024-03-02T10:45:15;99208.63;;;11.51;nan
52719;BME280;38616;42.140;24.760;2024-03-02T10:47:42;99200.03;;;11.24;nan
52719;BME280;38616;42.140;24.760;2024-03-02T10:50:09;99178.44;;;11.33;nan
52719;BME280;38616;42.140;24.760;2024-03-02T10:52:38;99189.41;;;11.61;nan
52719;BME280;38616;42.140;24.760;2024-03-02T10:55:07;99187.00;;;11.60;nan
52719;BME280;38616;42.140;24.760;2024-03-02T10:57:53;99190.84;;;11.59;nan
52719;BME280;38616;42.140;24.760;2024-03-02T11:00:20;99185.69;;;11.57;nan
52719;BME280;38616;42.140;24.760;2024-03-02T11:02:56;99182.28;;;11.65;nan
52719;BME280;38616;42.140;24.760;2024-03-02T11:05:26;99183.97;;;11.61;nan
52719;BME280;38616;42.140;24.760;2024-03-02T11:07:57;99187.00;;;11.60;nan
52719;BME280;38616;42.140;24.760;2024-03-02T11:10:27;99181.78;;;11.63;nan
52719;BME280;38616;42.140;24.760;2024-03-02T11:13:00;99178.19;;;11.49;nan
52719;BME280;38616;42.140;24.760;2024-03-02T11:15:27;99171.97;;;11.48;nan
52719;BME280;38616;42.140;24.760;2024-03-02T11:17:53;99174.28;;;11.55;nan
52719;BME280;38616;42.140;24.760;2024-03-02T11:20:19;99176.41;;;11.58;nan
52719;BME280;38616;42.140;24.760;2024-03-02T11:22:46;99174.00;;;11.57;nan
52719;BME280;38616;42.140;24.760;2024-03-02T11:25:25;99176.41;;;11.58;nan
52719;BME280;38616;42.140;24.760;2024-03-02T11:32:57;99169.34;;;11.57;nan
52719;BME280;38616;42.140;24.760;2024-03-02T11:35:24;99163.53;;;11.31;nan
52719;BME280;38616;42.140;24.760;2024-03-02T11:37:51;99157.88;;;11.27;nan
52719;BME280;38616;42.140;24.760;2024-03-02T11:40:21;99157.28;;;11.63;nan
52719;BME280;38616;42.140;24.760;2024-03-02T11:42:47;99153.81;;;11.44;nan
52719;BME280;38616;42.140;24.760;2024-03-02T11:45:16;99161.50;;;11.56;nan
52719;BME280;38616;42.140;24.760;2024-03-02T11:47:50;99144.94;;;11.71;nan
52719;BME280;38616;42.140;24.760;2024-03-02T11:50:15;99142.38;;;11.61;nan
52719;BME280;38616;42.140;24.760;2024-03-02T11:52:42;99139.16;;;11.59;nan
52719;BME280;38616;42.140;24.760;2024-03-02T11:55:08;99130.31;;;11.67;nan
52719;BME280;38616;42.140;24.760;2024-03-02T11:57:35;99130.47;;;11.57;nan
52719;BME280;38616;42.140;24.760;2024-03-02T12:00:00;99133.44;;;11.74;nan
52719;BME280;38616;42.140;24.760;2024-03-02T12:02:28;99132.84;;;11.91;nan
52719;BME280;38616;42.140;24.760;2024-03-02T12:04:54;99131.75;;;11.92;nan
52719;BME280;38616;42.140;24.760;2024-03-02T12:07:21;99133.78;;;11.53;nan
52719;BME280;38616;42.140;24.760;2024-03-02T12:09:47;99128.69;;;11.66;nan
52719;BME280;38616;42.140;24.760;2024-03-02T12:12:13;99127.25;;;11.68;nan
52719;BME280;38616;42.140;24.760;2024-03-02T12:14:50;99123.44;;;11.70;nan
52719;BME280;38616;42.140;24.760;2024-03-02T12:17:16;99124.88;;;11.95;nan
52719;BME280;38616;42.140;24.760;2024-03-02T12:19:42;99122.97;;;11.95;nan
52719;BME280;38616;42.140;24.760;2024-03-02T12:22:07;99115.53;;;12.01;nan
52719;BME280;38616;42.140;24.760;2024-03-02T12:24:33;99115.00;;;11.85;nan
52719;BME280;38616;42.140;24.760;2024-03-02T12:26:58;99118.59;;;12.00;nan
52719;BME280;38616;42.140;24.760;2024-03-02T12:29:24;99112.44;;;12.08;nan
52719;BME280;38616;42.140;24.760;2024-03-02T12:31:53;99108.09;;;12.21;nan
52719;BME280;38616;42.140;24.760;2024-03-02T12:34:19;99118.50;;;12.33;nan
52719;BME280;38616;42.140;24.760;2024-03-02T12:36:47;99122.69;;;12.39;nan
52719;BME280;38616;42.140;24.760;2024-03-02T12:39:16;99108.97;;;12.44;nan
52719;BME280;38616;42.140;24.760;2024-03-02T12:41:42;99122.97;;;11.95;nan
52719;BME280;38616;42.140;24.760;2024-03-02T12:44:07;99134.28;;;11.22;nan
52719;BME280;38616;42.140;24.760;2024-03-02T12:46:33;99129.59;;;11.09;nan
52719;BME280;38616;42.140;24.760;2024-03-02T12:49:12;99137.28;;;11.40;nan
52719;BME280;38616;42.140;24.760;2024-03-02T12:51:39;99132.88;;;11.58;nan
52719;BME280;38616;42.140;24.760;2024-03-02T12:54:07;99129.06;;;11.59;nan
52719;BME280;38616;42.140;24.760;2024-03-02T12:56:32;99140.44;;;11.61;nan
52719;BME280;38616;42.140;24.760;2024-03-02T12:58:59;99136.94;;;10.70;nan
52719;BME280;38616;42.140;24.760;2024-03-02T13:01:25;99144.94;;;10.13;nan
52719;BME280;38616;42.140;24.760;2024-03-02T13:03:52;99138.69;;;10.37;nan
52719;BME280;38616;42.140;24.760;2024-03-02T13:06:18;99142.22;;;10.37;nan
52719;BME280;38616;42.140;24.760;2024-03-02T13:08:45;99147.50;;;10.53;nan
52719;BME280;38616;42.140;24.760;2024-03-02T13:11:12;99140.09;;;10.77;nan
52719;BME280;38616;42.140;24.760;2024-03-02T13:13:39;99146.88;;;10.80;nan
52719;BME280;38616;42.140;24.760;2024-03-02T13:16:10;99152.22;;;10.85;nan